Time;durP1;ratioP1;P1;durP2;ratioP2;P2;SDS_P1;SDS_P2;PMS_P1;PMS_P2;Temp;Humidity;BMP_temperature;BMP_pressure;BME280_temperature;BME280_humidity;BME280_pressure;Samples;Min_cycle;Max_cycle;Signal;HPM_P1;HPM_P2
2022/04/26 03:36:37;;;;;;;6.70;4.50;;;;;;;;;;7398005;19;20053;-81
2022/04/26 03:39:03;;;;;;;6.05;5.10;;;;;;;;;;7397545;19;20003;-82
2022/04/26 03:41:28;;;;;;;6.65;4.63;;;;;;;;;;7395855;19;20014;-81
2022/04/26 03:43:53;;;;;;;7.57;4.38;;;;;;;;;;7393234;19;20484;-81
2022/04/26 03:46:19;;;;;;;7.93;5.72;;;;;;;;;;7398209;19;20014;-81
2022/04/26 03:48:44;;;;;;;7.85;4.95;;;;;;;;;;7393324;19;20006;-81
2022/04/26 03:51:09;;;;;;;8.43;5.25;;;;;;;;;;7396498;19;20374;-81
2022/04/26 03:53:35;;;;;;;5.05;4.30;;;;;;;;;;7392771;19;20006;-82
2022/04/26 03:56:00;;;;;;;7.47;5.10;;;;;;;;;;7399280;19;20023;-81
2022/04/26 03:58:26;;;;;;;6.75;4.55;;;;;;;;;;7395185;19;20027;-81
2022/04/26 04:00:52;;;;;;;6.00;4.57;;;;;;;;;;7396839;19;20078;-82
2022/04/26 04:03:17;;;;;;;5.75;4.55;;;;;;;;;;7390829;19;20011;-81
2022/04/26 04:05:43;;;;;;;7.03;4.57;;;;;;;;;;7392677;19;20010;-81
2022/04/26 04:08:08;;;;;;;8.23;5.13;;;;;;;;;;7398107;19;20018;-81
2022/04/26 04:10:33;;;;;;;7.32;5.15;;;;;;;;;;7395554;19;20006;-81
2022/04/26 04:12:59;;;;;;;6.97;5.30;;;;;;;;;;7397126;19;20010;-81
2022/04/26 04:15:24;;;;;;;6.93;4.35;;;;;;;;;;7394551;19;20077;-82
2022/04/26 04:17:49;;;;;;;6.00;4.28;;;;;;;;;;7396401;19;20014;-82
2022/04/26 04:20:15;;;;;;;6.03;4.35;;;;;;;;;;7394317;19;20045;-82
2022/04/26 04:22:41;;;;;;;6.28;4.03;;;;;;;;;;7394043;19;20011;-82
2022/04/26 04:25:06;;;;;;;6.82;4.28;;;;;;;;;;7397263;19;20008;-83
2022/04/26 04:27:32;;;;;;;6.18;3.55;;;;;;;;;;7394611;19;20054;-81
2022/04/26 04:30:02;;;;;;;4.25;3.35;;;;;;;;;;7395157;19;20015;-81
2022/04/26 04:32:27;;;;;;;6.15;3.72;;;;;;;;;;7395211;19;20463;-80
2022/04/26 04:36:00;;;;;;;5.43;3.90;;;;;;;;;;7397082;19;20010;-82
2022/04/26 04:38:29;;;;;;;7.95;4.40;;;;;;;;;;7390766;19;20147;-82
2022/04/26 04:40:54;;;;;;;9.70;6.00;;;;;;;;;;7392677;19;20015;-81
2022/04/26 04:43:19;;;;;;;9.23;5.85;;;;;;;;;;7394446;19;20025;-81
2022/04/26 04:45:45;;;;;;;8.43;5.28;;;;;;;;;;7395982;19;20015;-82
2022/04/26 04:48:10;;;;;;;6.88;4.93;;;;;;;;;;7397170;19;20503;-81
2022/04/26 04:50:36;;;;;;;6.57;4.80;;;;;;;;;;7394959;19;20040;-84
2022/04/26 04:53:02;;;;;;;5.97;5.03;;;;;;;;;;7398499;19;20011;-82
2022/04/26 04:55:27;;;;;;;8.00;4.43;;;;;;;;;;7397474;19;20018;-83
2022/04/26 04:57:52;;;;;;;8.48;4.72;;;;;;;;;;7398501;19;20014;-82
2022/04/26 05:00:18;;;;;;;8.52;5.05;;;;;;;;;;7395387;19;20018;-82
2022/04/26 05:02:43;;;;;;;8.40;5.63;;;;;;;;;;7399754;19;20017;-82
2022/04/26 05:05:09;;;;;;;7.85;5.00;;;;;;;;;;7398800;19;20030;-82
2022/04/26 05:07:36;;;;;;;6.60;4.43;;;;;;;;;;7397975;19;20024;-82
2022/04/26 05:10:02;;;;;;;6.45;4.78;;;;;;;;;;7397789;19;20018;-82
2022/04/26 05:13:01;;;;;;;8.85;5.28;;;;;;;;;;7393950;19;20006;-82
2022/04/26 05:15:26;;;;;;;7.85;5.40;;;;;;;;;;7389714;19;20037;-80
2022/04/26 05:18:16;;;;;;;6.78;5.30;;;;;;;;;;7399398;19;20039;-81
2022/04/26 05:20:43;;;;;;;8.15;5.45;;;;;;;;;;7393964;19;20035;-81
2022/04/26 05:26:35;;;;;;;17.25;10.85;;;;;;;;;;7390335;19;20017;-83
2022/04/26 05:36:20;;;;;;;8.82;5.82;;;;;;;;;;7387637;19;20387;-82
2022/04/26 05:39:15;;;;;;;7.10;5.28;;;;;;;;;;7380025;19;20003;-81
2022/04/26 05:41:42;;;;;;;9.32;6.38;;;;;;;;;;7387661;19;20034;-82
2022/04/26 05:44:07;;;;;;;8.77;6.00;;;;;;;;;;7387517;19;20006;-81
2022/04/26 05:46:33;;;;;;;8.00;5.70;;;;;;;;;;7389083;19;20011;-83
2022/04/26 05:48:58;;;;;;;9.05;6.05;;;;;;;;;;7391620;19;20018;-83
2022/04/26 05:51:26;;;;;;;8.75;6.57;;;;;;;;;;7397900;19;20047;-83
2022/04/26 05:53:51;;;;;;;7.70;5.93;;;;;;;;;;7398712;19;20010;-81
2022/04/26 05:56:22;;;;;;;9.30;6.45;;;;;;;;;;7400383;19;20010;-83
2022/04/26 05:58:51;;;;;;;8.10;6.10;;;;;;;;;;7400854;19;20010;-80
2022/04/26 06:01:16;;;;;;;7.22;5.53;;;;;;;;;;7401430;19;20022;-80
2022/04/26 06:03:42;;;;;;;9.38;6.43;;;;;;;;;;7398739;19;20043;-80
2022/04/26 06:06:07;;;;;;;10.10;5.95;;;;;;;;;;7402581;19;20372;-81
2022/04/26 06:08:41;;;;;;;7.65;5.72;;;;;;;;;;7404820;19;20356;-80
2022/04/26 06:11:43;;;;;;;6.68;5.10;;;;;;;;;;7400311;19;20055;-79
2022/04/26 06:14:28;;;;;;;6.97;5.30;;;;;;;;;;7402347;19;20417;-80
2022/04/26 06:16:55;;;;;;;9.00;5.70;;;;;;;;;;7405861;19;19994;-80
2022/04/26 06:19:20;;;;;;;8.68;5.72;;;;;;;;;;7400343;19;20667;-81
2022/04/26 06:21:46;;;;;;;7.75;5.05;;;;;;;;;;7402316;19;20086;-81
2022/04/26 06:24:11;;;;;;;7.47;5.53;;;;;;;;;;7401621;19;20009;-81
2022/04/26 06:26:37;;;;;;;5.45;4.35;;;;;;;;;;7408000;19;20038;-81
2022/04/26 06:29:16;;;;;;;5.40;4.18;;;;;;;;;;7408562;19;20730;-80
2022/04/26 06:31:57;;;;;;;6.85;4.20;;;;;;;;;;7402190;19;20425;-81
2022/04/26 06:37:37;;;;;;;4.95;3.60;;;;;;;;;;7399842;19;20010;-81
2022/04/26 06:40:54;;;;;;;4.75;3.67;;;;;;;;;;7401366;19;20472;-81
2022/04/26 06:47:26;;;;;;;3.95;3.30;;;;;;;;;;7393546;19;20042;-80
2022/04/26 06:49:57;;;;;;;5.78;3.75;;;;;;;;;;7398212;19;20018;-81
2022/04/26 06:52:25;;;;;;;6.05;3.65;;;;;;;;;;7398365;19;20010;-81
2022/04/26 06:54:50;;;;;;;13.35;4.85;;;;;;;;;;7396334;19;20467;-80
2022/04/26 06:57:17;;;;;;;5.47;3.65;;;;;;;;;;7398588;19;20010;-81
2022/04/26 06:59:42;;;;;;;4.43;3.58;;;;;;;;;;7397089;19;20037;-81
2022/04/26 07:02:08;;;;;;;3.42;2.80;;;;;;;;;;7395368;19;20494;-81
2022/04/26 07:04:33;;;;;;;4.10;2.97;;;;;;;;;;7406138;19;20531;-83
2022/04/26 07:06:59;;;;;;;4.10;2.83;;;;;;;;;;7409713;19;20006;-83
2022/04/26 07:09:24;;;;;;;4.28;3.22;;;;;;;;;;7412173;19;20035;-81
2022/04/26 07:11:50;;;;;;;3.92;2.70;;;;;;;;;;7399287;19;20014;-80
2022/04/26 07:14:26;;;;;;;3.58;2.83;;;;;;;;;;7395813;19;20358;-83
2022/04/26 07:16:51;;;;;;;;;;;;;;;;;;7396425;19;20443;-81
2022/04/26 07:19:17;;;;;;;2.90;2.40;;;;;;;;;;7396644;19;19923;-83
2022/04/26 07:21:44;;;;;;;2.70;2.50;;;;;;;;;;7399650;19;20026;-83
2022/04/26 07:24:12;;;;;;;3.55;2.75;;;;;;;;;;7400506;19;20368;-82
2022/04/26 07:26:42;;;;;;;3.67;2.55;;;;;;;;;;7404343;19;20439;-82
2022/04/26 07:29:08;;;;;;;4.80;2.45;;;;;;;;;;7396993;19;20027;-82
2022/04/26 07:31:34;;;;;;;11.45;2.42;;;;;;;;;;7392730;19;20018;-83
2022/04/26 07:36:43;;;;;;;3.08;2.55;;;;;;;;;;7398542;19;20054;-83
2022/04/26 07:39:09;;;;;;;3.65;2.63;;;;;;;;;;7398463;19;20039;-81
2022/04/26 07:41:34;;;;;;;2.40;1.95;;;;;;;;;;7395046;19;20017;-81
2022/04/26 07:43:59;;;;;;;2.90;1.60;;;;;;;;;;7394709;19;20456;-81
2022/04/26 07:46:25;;;;;;;2.78;2.00;;;;;;;;;;7397243;19;20049;-82
2022/04/26 07:48:51;;;;;;;2.20;2.00;;;;;;;;;;7398274;19;20006;-82
2022/04/26 07:51:18;;;;;;;1.85;1.67;;;;;;;;;;7395983;19;20014;-82
2022/04/26 07:53:44;;;;;;;2.97;2.10;;;;;;;;;;7395249;19;20085;-84
2022/04/26 07:56:56;;;;;;;2.67;2.10;;;;;;;;;;7398013;19;20374;-83
2022/04/26 08:07:06;;;;;;;2.33;1.40;;;;;;;;;;7393020;19;20012;-83
2022/04/26 08:10:09;;;;;;;1.70;1.60;;;;;;;;;;7394351;19;20082;-84
2022/04/26 08:16:51;;;;;;;2.05;1.77;;;;;;;;;;7402747;19;20017;-83
2022/04/26 08:19:52;;;;;;;2.10;1.30;;;;;;;;;;7395219;19;19990;-83
2022/04/26 08:27:40;;;;;;;2.20;1.80;;;;;;;;;;7417045;19;20026;-83
2022/04/26 08:30:45;;;;;;;2.72;1.95;;;;;;;;;;7422976;19;20035;-82
2022/04/26 08:37:38;;;;;;;1.92;1.73;;;;;;;;;;7422258;19;20034;-83
2022/04/26 08:41:16;;;;;;;1.40;1.30;;;;;;;;;;7394805;19;20023;-82
2022/04/26 08:51:25;;;;;;;0.95;0.93;;;;;;;;;;7389938;19;19986;-84
2022/04/26 10:36:51;;;;;;;1.17;1.08;;;;;;;;;;7400285;19;20039;-84
2022/04/26 10:42:35;;;;;;;1.52;1.17;;;;;;;;;;7396925;19;20027;-85
2022/04/26 10:45:13;;;;;;;2.40;1.98;;;;;;;;;;7396850;19;20014;-79
2022/04/26 10:47:40;;;;;;;3.15;2.70;;;;;;;;;;7398961;19;20639;-81
2022/04/26 10:50:06;;;;;;;4.95;3.08;;;;;;;;;;7396151;19;20002;-79
2022/04/26 10:52:43;;;;;;;3.83;1.85;;;;;;;;;;7397466;19;20039;-81
2022/04/26 10:55:10;;;;;;;2.40;2.00;;;;;;;;;;7408495;19;20045;-79
2022/04/26 10:57:36;;;;;;;4.80;2.42;;;;;;;;;;7407282;19;20014;-79
2022/04/26 11:00:03;;;;;;;3.55;2.40;;;;;;;;;;7407793;19;20046;-79
2022/04/26 11:02:31;;;;;;;2.92;2.05;;;;;;;;;;7405864;19;20463;-78
2022/04/26 11:05:10;;;;;;;1.70;1.60;;;;;;;;;;7406367;19;20018;-80
2022/04/26 11:07:40;;;;;;;2.15;1.70;;;;;;;;;;7407967;19;20006;-78
2022/04/26 11:10:07;;;;;;;3.10;1.50;;;;;;;;;;7407902;19;20040;-80
2022/04/26 11:12:34;;;;;;;1.20;1.10;;;;;;;;;;7404636;19;20011;-78
2022/04/26 11:15:02;;;;;;;5.82;1.30;;;;;;;;;;7406009;19;19999;-77
2022/04/26 11:17:29;;;;;;;4.53;1.23;;;;;;;;;;7403692;19;20523;-81
2022/04/26 11:20:16;;;;;;;1.30;1.20;;;;;;;;;;7404266;19;20024;-80
2022/04/26 11:22:50;;;;;;;1.23;1.08;;;;;;;;;;7399667;19;20022;-79
2022/04/26 11:28:14;;;;;;;;;;;;;;;;;;7401646;19;20025;-77
2022/04/26 11:30:45;;;;;;;1.98;1.63;;;;;;;;;;7390524;19;19918;-79
2022/04/26 11:33:19;;;;;;;1.98;1.60;;;;;;;;;;7394700;19;20014;-80
2022/04/26 11:35:51;;;;;;;1.43;1.30;;;;;;;;;;7395366;19;20069;-79
2022/04/26 11:38:17;;;;;;;1.70;1.40;;;;;;;;;;7400279;19;20820;-79
2022/04/26 11:40:48;;;;;;;2.05;1.35;;;;;;;;;;7395587;19;20006;-79
2022/04/26 11:43:19;;;;;;;1.65;1.50;;;;;;;;;;7398591;19;20497;-78
2022/04/26 11:45:49;;;;;;;2.08;1.40;;;;;;;;;;7395206;19;20022;-78
2022/04/26 11:48:19;;;;;;;2.53;1.42;;;;;;;;;;7390317;19;20308;-78
2022/04/26 11:50:47;;;;;;;3.40;1.65;;;;;;;;;;7390249;19;20018;-76
2022/04/26 11:53:19;;;;;;;2.92;1.58;;;;;;;;;;7390529;19;20014;-78
2022/04/26 11:55:51;;;;;;;2.47;1.40;;;;;;;;;;7392507;19;20018;-77
2022/04/26 11:58:19;;;;;;;2.67;1.35;;;;;;;;;;7389740;19;20006;-78
2022/04/26 12:01:10;;;;;;;3.95;1.90;;;;;;;;;;7390255;19;20455;-78
2022/04/26 12:03:55;;;;;;;3.15;1.90;;;;;;;;;;7386352;19;20014;-78
2022/04/26 12:06:36;;;;;;;3.83;1.60;;;;;;;;;;7391823;19;20011;-79
2022/04/26 12:09:05;;;;;;;12.25;1.55;;;;;;;;;;7392790;19;20531;-80
2022/04/26 12:11:36;;;;;;;1.90;1.70;;;;;;;;;;7394693;19;20011;-78
2022/04/26 12:14:06;;;;;;;2.50;1.58;;;;;;;;;;7392563;19;20119;-79
2022/04/26 12:16:36;;;;;;;5.07;1.65;;;;;;;;;;7394589;19;20011;-78
2022/04/26 12:19:05;;;;;;;1.58;1.48;;;;;;;;;;7388832;19;20019;-78
2022/04/26 12:22:00;;;;;;;2.28;1.80;;;;;;;;;;7390109;19;20013;-80
2022/04/26 12:24:29;;;;;;;2.42;1.63;;;;;;;;;;7392277;19;20011;-78
2022/04/26 12:27:04;;;;;;;3.15;1.52;;;;;;;;;;7393692;19;20011;-79
2022/04/26 12:29:35;;;;;;;;;;;;;;;;;;7392511;19;20014;-78
2022/04/26 12:32:04;;;;;;;4.50;1.55;;;;;;;;;;7387694;19;19918;-78
2022/04/26 12:34:30;;;;;;;7.03;1.85;;;;;;;;;;7388814;19;20007;-78
2022/04/26 12:37:00;;;;;;;2.10;1.48;;;;;;;;;;7392774;19;20031;-79
2022/04/26 12:39:41;;;;;;;2.10;1.50;;;;;;;;;;7396214;19;20018;-78
2022/04/26 12:42:07;;;;;;;2.30;1.17;;;;;;;;;;7392839;19;20014;-78
2022/04/26 12:44:34;;;;;;;1.52;1.17;;;;;;;;;;7393667;19;20007;-78
2022/04/26 12:50:28;;;;;;;1.40;1.10;;;;;;;;;;7395704;19;20034;-77
2022/04/26 12:52:58;;;;;;;0.85;0.80;;;;;;;;;;7392474;19;20010;-78
2022/04/26 12:55:34;;;;;;;1.85;0.90;;;;;;;;;;7390752;19;20852;-78
2022/04/26 12:58:02;;;;;;;3.88;1.30;;;;;;;;;;7394828;19;20011;-78
2022/04/26 13:00:28;;;;;;;1.55;0.88;;;;;;;;;;7392390;19;20126;-78
2022/04/26 13:02:59;;;;;;;1.67;0.90;;;;;;;;;;7391253;19;20022;-77
2022/04/26 13:05:25;;;;;;;2.08;1.17;;;;;;;;;;7391223;19;20006;-79
2022/04/26 13:07:51;;;;;;;2.03;1.08;;;;;;;;;;7390864;19;20036;-78
2022/04/26 13:10:18;;;;;;;1.88;0.95;;;;;;;;;;7392284;19;20486;-77
2022/04/26 13:12:43;;;;;;;2.83;1.23;;;;;;;;;;7389969;19;20023;-79
2022/04/26 13:15:10;;;;;;;7.07;1.60;;;;;;;;;;7397019;19;20002;-79
2022/04/26 13:17:38;;;;;;;2.50;1.30;;;;;;;;;;7395930;19;20477;-78
2022/04/26 13:20:05;;;;;;;3.03;1.30;;;;;;;;;;7393965;19;20074;-79
2022/04/26 13:22:33;;;;;;;3.90;1.35;;;;;;;;;;7397235;19;19999;-80
2022/04/26 13:24:58;;;;;;;2.70;1.27;;;;;;;;;;7392991;19;20378;-79
2022/04/26 13:27:24;;;;;;;2.60;1.30;;;;;;;;;;7394233;19;20014;-79
2022/04/26 13:29:50;;;;;;;2.05;1.40;;;;;;;;;;7394174;19;20104;-79
2022/04/26 13:32:18;;;;;;;2.92;1.45;;;;;;;;;;7390489;19;20014;-79
2022/04/26 13:34:46;;;;;;;2.13;1.10;;;;;;;;;;7390347;19;20018;-80
2022/04/26 13:37:14;;;;;;;2.05;1.20;;;;;;;;;;7395096;19;20011;-79
2022/04/26 13:39:45;;;;;;;5.18;1.42;;;;;;;;;;7390093;19;20014;-79
2022/04/26 13:42:11;;;;;;;2.45;1.58;;;;;;;;;;7398258;19;20005;-82
2022/04/26 13:44:37;;;;;;;2.90;1.60;;;;;;;;;;7389896;19;20018;-79
2022/04/26 13:47:04;;;;;;;2.22;1.40;;;;;;;;;;7386856;19;20306;-79
2022/04/26 13:49:31;;;;;;;3.63;1.15;;;;;;;;;;7393527;19;20486;-79
2022/04/26 13:51:57;;;;;;;1.23;1.05;;;;;;;;;;7394125;19;20101;-78
2022/04/26 13:54:23;;;;;;;3.97;1.50;;;;;;;;;;7388550;19;20026;-78
2022/04/26 13:56:49;;;;;;;1.92;1.38;;;;;;;;;;7392236;19;19999;-79
2022/04/26 13:59:15;;;;;;;2.65;1.35;;;;;;;;;;7392496;19;20035;-79
2022/04/26 14:01:40;;;;;;;3.17;1.42;;;;;;;;;;7393573;19;20118;-78
2022/04/26 14:04:06;;;;;;;2.17;1.52;;;;;;;;;;7392105;19;20031;-78
2022/04/26 14:06:31;;;;;;;2.33;1.63;;;;;;;;;;7393777;19;20034;-79
2022/04/26 14:08:56;;;;;;;3.10;1.58;;;;;;;;;;7390129;19;20810;-79
2022/04/26 14:11:22;;;;;;;4.00;1.95;;;;;;;;;;7393577;19;20003;-79
2022/04/26 14:21:59;;;;;;;3.08;2.17;;;;;;;;;;7397834;19;20035;-80
2022/04/26 14:24:25;;;;;;;4.28;1.55;;;;;;;;;;7392216;19;20110;-78
2022/04/26 14:26:51;;;;;;;4.65;1.50;;;;;;;;;;7395829;19;20015;-78
2022/04/26 14:29:16;;;;;;;2.50;1.92;;;;;;;;;;7398938;19;20003;-81
2022/04/26 14:31:42;;;;;;;3.65;1.55;;;;;;;;;;7397649;19;20112;-80
2022/04/26 14:34:08;;;;;;;2.85;1.63;;;;;;;;;;7403784;19;20015;-80
2022/04/26 14:36:34;;;;;;;2.05;1.50;;;;;;;;;;7411686;19;20054;-77
2022/04/26 14:38:59;;;;;;;5.47;1.92;;;;;;;;;;7424015;19;20038;-79
2022/04/26 14:41:26;;;;;;;2.35;1.67;;;;;;;;;;7414999;19;20058;-80
2022/04/26 14:43:52;;;;;;;1.65;1.45;;;;;;;;;;7405823;19;20011;-80
2022/04/26 14:46:17;;;;;;;3.00;1.83;;;;;;;;;;7407850;19;20035;-79
2022/04/26 14:48:44;;;;;;;1.80;1.60;;;;;;;;;;7405093;19;20039;-79
2022/04/26 14:51:10;;;;;;;3.72;1.73;;;;;;;;;;7406251;19;20009;-80
2022/04/26 14:53:35;;;;;;;3.75;2.47;;;;;;;;;;7406261;19;20318;-78
2022/04/26 14:56:00;;;;;;;3.45;2.30;;;;;;;;;;7405340;19;20068;-79
2022/04/26 14:58:26;;;;;;;2.00;1.70;;;;;;;;;;7405375;19;20014;-79
2022/04/26 15:00:51;;;;;;;4.13;2.20;;;;;;;;;;7405461;19;20041;-80
2022/04/26 15:03:17;;;;;;;2.42;1.92;;;;;;;;;;7403857;19;20129;-82
2022/04/26 15:05:42;;;;;;;2.00;1.60;;;;;;;;;;7410490;19;19995;-79
2022/04/26 15:10:51;;;;;;;4.13;2.10;;;;;;;;;;7412779;19;20016;-79
2022/04/26 15:18:45;;;;;;;3.80;2.58;;;;;;;;;;7395371;19;20026;-78
2022/04/26 15:21:10;;;;;;;2.20;1.83;;;;;;;;;;7395560;19;20011;-78
2022/04/26 15:23:36;;;;;;;2.70;2.00;;;;;;;;;;7393139;19;20027;-78
2022/04/26 15:26:06;;;;;;;4.28;2.45;;;;;;;;;;7408857;19;20003;-79
2022/04/26 15:28:34;;;;;;;4.07;2.45;;;;;;;;;;7407870;19;20032;-80
2022/04/26 15:31:01;;;;;;;6.68;2.10;;;;;;;;;;7424259;19;20018;-80
2022/04/26 15:33:26;;;;;;;3.35;1.90;;;;;;;;;;7424390;19;20010;-80
2022/04/26 15:35:51;;;;;;;2.65;2.00;;;;;;;;;;7421566;19;20360;-80
2022/04/26 15:38:17;;;;;;;1.40;1.30;;;;;;;;;;7422378;19;20026;-80
2022/04/26 15:40:46;;;;;;;1.67;1.13;;;;;;;;;;7423919;19;20031;-80
2022/04/26 15:43:12;;;;;;;2.15;1.70;;;;;;;;;;7417230;19;20010;-80
2022/04/26 15:45:37;;;;;;;1.45;0.93;;;;;;;;;;7421518;19;20014;-80
2022/04/26 15:48:04;;;;;;;0.90;0.90;;;;;;;;;;7415982;19;20023;-80
2022/04/26 15:50:29;;;;;;;3.22;1.27;;;;;;;;;;7397240;19;20031;-79
2022/04/26 15:52:55;;;;;;;0.50;0.50;;;;;;;;;;7397258;19;20014;-79
2022/04/26 15:55:22;;;;;;;1.70;0.65;;;;;;;;;;7397946;19;20138;-80
2022/04/26 15:57:49;;;;;;;0.70;0.70;;;;;;;;;;7396138;19;20068;-79
2022/04/26 16:00:15;;;;;;;0.65;0.60;;;;;;;;;;7396302;19;20330;-78
2022/04/26 16:02:43;;;;;;;1.25;0.63;;;;;;;;;;7397207;19;20006;-79
2022/04/26 16:05:09;;;;;;;4.95;1.00;;;;;;;;;;7400906;19;20050;-80
2022/04/26 16:07:34;;;;;;;0.63;0.63;;;;;;;;;;7408366;19;20014;-80
2022/04/26 16:20:58;;;;;;;1.92;0.90;;;;;;;;;;7398842;19;20455;-79
2022/04/26 16:23:23;;;;;;;3.10;1.70;;;;;;;;;;7398361;19;19999;-79
2022/04/26 16:25:48;;;;;;;1.25;1.05;;;;;;;;;;7399842;19;20010;-80
2022/04/26 16:28:17;;;;;;;1.42;0.90;;;;;;;;;;7400575;19;20015;-79
2022/04/26 16:31:03;;;;;;;2.05;0.70;;;;;;;;;;7396597;19;20512;-79
2022/04/26 16:36:22;;;;;;;;;;;;;;;;;;;;;
2022/04/26 17:46:11;;;;;;;1.55;1.15;;;;;;;;;;7373429;19;19998;-81
2022/04/26 17:48:36;;;;;;;1.67;0.95;;;;;;;;;;7397960;19;20104;-80
2022/04/26 17:51:02;;;;;;;1.27;0.90;;;;;;;;;;7403008;19;20018;-80
2022/04/26 17:56:29;;;;;;;1.30;0.98;;;;;;;;;;7404650;19;20037;-81
2022/04/26 17:58:57;;;;;;;0.95;0.70;;;;;;;;;;7403009;19;20007;-80
2022/04/26 18:01:22;;;;;;;2.88;1.35;;;;;;;;;;7402272;19;20407;-80
2022/04/26 18:03:48;;;;;;;4.72;2.38;;;;;;;;;;7396596;19;19998;-81
2022/04/26 18:06:14;;;;;;;4.82;1.58;;;;;;;;;;7405778;19;20043;-81
2022/04/26 18:08:41;;;;;;;2.85;1.30;;;;;;;;;;7404717;19;19994;-81
2022/04/26 18:11:09;;;;;;;3.22;1.80;;;;;;;;;;7406037;19;20021;-81
2022/04/26 18:19:56;;;;;;;1.52;1.00;;;;;;;;;;7414264;19;20010;-82
2022/04/26 20:20:17;;;;;;;;;;;;;;;;;;;;;
2022/04/26 21:06:38;;;;;;;1.27;1.17;;;;;;;;;;7395039;19;20468;-82
2022/04/26 21:09:03;;;;;;;1.58;1.30;;;;;;;;;;7399200;19;20056;-82
2022/04/26 21:11:29;;;;;;;1.65;1.23;;;;;;;;;;7394197;19;20039;-81
2022/04/26 21:13:54;;;;;;;1.50;1.40;;;;;;;;;;7396623;19;20027;-81
2022/04/26 21:16:20;;;;;;;2.60;1.60;;;;;;;;;;7396966;19;20126;-81
2022/04/26 21:18:45;;;;;;;2.17;1.27;;;;;;;;;;7400117;19;20007;-82
2022/04/26 21:21:11;;;;;;;2.05;1.60;;;;;;;;;;7394470;19;20014;-82
2022/04/26 21:23:38;;;;;;;1.75;1.27;;;;;;;;;;7398845;19;20014;-81
2022/04/26 21:26:03;;;;;;;1.80;1.38;;;;;;;;;;7398314;19;20488;-80
2022/04/26 21:28:29;;;;;;;3.03;1.52;;;;;;;;;;7396422;19;20011;-81
2022/04/26 21:30:54;;;;;;;2.55;1.75;;;;;;;;;;7399240;19;20328;-80
2022/04/26 21:33:20;;;;;;;3.25;1.83;;;;;;;;;;7395044;19;20077;-81
2022/04/26 21:35:46;;;;;;;4.45;1.70;;;;;;;;;;7398614;19;20039;-81
2022/04/26 21:38:11;;;;;;;4.75;2.17;;;;;;;;;;7397577;19;20014;-81
2022/04/26 21:40:37;;;;;;;3.88;2.03;;;;;;;;;;7399429;19;20015;-82
2022/04/26 21:43:03;;;;;;;2.97;2.05;;;;;;;;;;7399167;19;20038;-81
2022/04/26 21:45:28;;;;;;;2.00;1.67;;;;;;;;;;7398158;19;20021;-82
2022/04/26 21:47:55;;;;;;;2.97;2.05;;;;;;;;;;7395894;19;20361;-81
2022/04/26 21:53:05;;;;;;;2.03;1.40;;;;;;;;;;7399210;19;20018;-81
2022/04/26 21:55:31;;;;;;;4.22;2.35;;;;;;;;;;7395666;19;20018;-82
2022/04/26 21:57:56;;;;;;;2.83;2.10;;;;;;;;;;7400169;19;20018;-82
2022/04/26 22:00:27;;;;;;;3.78;2.63;;;;;;;;;;7399511;19;20010;-80
2022/04/26 22:02:52;;;;;;;5.10;2.55;;;;;;;;;;7392706;19;20026;-81
2022/04/26 22:05:18;;;;;;;6.18;2.95;;;;;;;;;;7397007;19;20323;-81
2022/04/26 22:07:44;;;;;;;6.15;2.97;;;;;;;;;;7396709;19;20046;-81
2022/04/26 22:10:10;;;;;;;7.28;3.13;;;;;;;;;;7399703;19;19998;-81
2022/04/26 22:12:35;;;;;;;3.75;2.10;;;;;;;;;;7396959;19;20015;-81
2022/04/26 22:15:01;;;;;;;8.48;3.60;;;;;;;;;;7398977;19;20010;-81
2022/04/26 22:17:27;;;;;;;11.38;3.60;;;;;;;;;;7397007;19;20031;-81
2022/04/26 22:19:53;;;;;;;8.55;4.03;;;;;;;;;;7401149;19;20028;-81
2022/04/26 22:22:20;;;;;;;7.95;2.97;;;;;;;;;;7399567;19;20029;-81
2022/04/26 22:24:52;;;;;;;4.60;2.95;;;;;;;;;;7399767;19;20381;-81
2022/04/26 22:27:18;;;;;;;4.10;2.40;;;;;;;;;;7401479;19;20035;-81
2022/04/26 22:29:43;;;;;;;4.88;2.80;;;;;;;;;;7401445;19;20010;-81
2022/04/26 22:32:13;;;;;;;4.07;2.30;;;;;;;;;;7400633;19;20007;-82
2022/04/26 22:34:39;;;;;;;4.45;2.40;;;;;;;;;;7413305;19;20006;-79
2022/04/26 22:37:05;;;;;;;4.93;2.40;;;;;;;;;;7428428;19;19995;-81
2022/04/26 22:39:31;;;;;;;7.68;3.20;;;;;;;;;;7428143;19;20027;-81
2022/04/26 22:41:56;;;;;;;4.30;2.00;;;;;;;;;;7424485;19;20018;-80
2022/04/26 22:44:21;;;;;;;2.60;1.90;;;;;;;;;;7420756;19;20011;-79
2022/04/26 22:46:46;;;;;;;2.17;1.85;;;;;;;;;;7408495;19;20436;-81
2022/04/26 22:49:12;;;;;;;2.95;1.95;;;;;;;;;;7400912;19;20002;-82
2022/04/26 22:51:38;;;;;;;2.35;2.05;;;;;;;;;;7400675;19;20106;-82
2022/04/26 22:54:03;;;;;;;6.07;3.08;;;;;;;;;;7397359;19;20354;-81
2022/04/26 22:56:29;;;;;;;11.60;4.18;;;;;;;;;;7396062;19;20481;-81
2022/04/26 22:58:55;;;;;;;3.67;2.28;;;;;;;;;;7399996;19;20011;-81
2022/04/26 23:01:21;;;;;;;2.55;1.92;;;;;;;;;;7394885;19;20447;-81
2022/04/26 23:03:46;;;;;;;2.83;2.00;;;;;;;;;;7398000;19;20017;-81
2022/04/26 23:06:11;;;;;;;3.47;2.08;;;;;;;;;;7401100;19;20010;-81
2022/04/26 23:08:38;;;;;;;3.60;2.08;;;;;;;;;;7396320;19;20090;-81
2022/04/26 23:11:03;;;;;;;8.15;2.97;;;;;;;;;;7400699;19;20003;-81
2022/04/26 23:13:29;;;;;;;5.38;2.38;;;;;;;;;;7397432;19;20375;-81
2022/04/26 23:15:54;;;;;;;3.33;2.20;;;;;;;;;;7402745;19;20357;-81
2022/04/26 23:18:19;;;;;;;3.22;2.00;;;;;;;;;;7395298;19;20420;-81
2022/04/26 23:20:45;;;;;;;4.45;2.47;;;;;;;;;;7398352;19;20014;-81
2022/04/26 23:23:10;;;;;;;2.83;2.25;;;;;;;;;;7397754;19;20123;-81
2022/04/26 23:25:35;;;;;;;4.15;2.17;;;;;;;;;;7395792;19;20543;-82
2022/04/26 23:28:00;;;;;;;4.35;1.98;;;;;;;;;;7400206;19;20018;-82
2022/04/26 23:30:26;;;;;;;2.25;1.90;;;;;;;;;;7397847;19;20007;-81
2022/04/26 23:32:51;;;;;;;2.97;1.90;;;;;;;;;;7398799;19;20031;-81
2022/04/26 23:35:34;;;;;;;6.28;2.80;;;;;;;;;;7394393;19;20010;-82
2022/04/26 23:38:04;;;;;;;3.08;1.80;;;;;;;;;;7398337;19;20017;-81
2022/04/26 23:40:33;;;;;;;2.90;2.28;;;;;;;;;;7399230;19;20014;-81
2022/04/26 23:43:01;;;;;;;5.63;2.25;;;;;;;;;;7397411;19;20527;-82
2022/04/26 23:45:27;;;;;;;4.85;2.13;;;;;;;;;;7396726;19;19998;-82
2022/04/26 23:47:53;;;;;;;6.63;2.58;;;;;;;;;;7399548;19;20368;-81
2022/04/26 23:53:02;;;;;;;9.68;3.28;;;;;;;;;;7397203;19;20052;-81
2022/04/26 23:55:29;;;;;;;9.20;3.67;;;;;;;;;;7398759;19;20011;-81
2022/04/26 23:57:55;;;;;;;7.32;3.42;;;;;;;;;;7396414;19;20014;-81
